Time;durP1;ratioP1;P1;durP2;ratioP2;P2;SDS_P1;SDS_P2;PMS_P1;PMS_P2;Temp;Humidity;BMP_temperature;BMP_pressure;BME280_temperature;BME280_humidity;BME280_pressure;Samples;Min_cycle;Max_cycle;Signal;HPM_P1;HPM_P2
2021/03/04 00:00:04;;;;;;;;;;;;;;;12.63;50.92;101645.66;4933858;28;98985;-78
2021/03/04 00:02:30;;;;;;;104.32;53.85;;;;;;;12.64;50.74;101644.75;4923672;28;98871;-78
2021/03/04 00:04:56;;;;;;;101.30;53.45;;;;;;;12.51;51.04;101651.34;4931767;28;96987;-78
2021/03/04 00:07:22;;;;;;;113.15;55.53;;;;;;;12.59;51.14;101644.91;4937722;28;97524;-78
2021/03/04 00:09:48;;;;;;;;;;;;;;;12.64;50.90;101647.41;4918439;28;98632;-79
2021/03/04 00:12:13;;;;;;;109.28;55.28;;;;;;;12.56;51.17;101639.69;4932699;28;97644;-80
2021/03/04 00:14:40;;;;;;;116.80;59.13;;;;;;;12.69;50.83;101641.06;4933122;28;97020;-80
2021/03/04 00:17:06;;;;;;;109.65;55.28;;;;;;;12.36;51.81;101642.91;4946512;28;97865;-78
2021/03/04 00:19:32;;;;;;;113.68;57.90;;;;;;;12.31;52.02;101641.31;4940928;28;99100;-78
2021/03/04 00:21:58;;;;;;;104.43;56.88;;;;;;;12.20;52.32;101641.63;4943728;28;97837;-79
2021/03/04 00:24:24;;;;;;;;;;;;;;;12.48;51.68;101627.56;4943158;28;96913;-79
2021/03/04 00:26:51;;;;;;;110.28;56.65;;;;;;;12.38;52.22;101632.28;4943349;28;97046;-78
2021/03/04 00:29:17;;;;;;;112.65;57.95;;;;;;;12.35;52.22;101635.88;4950436;28;99430;-79
2021/03/04 00:31:42;;;;;;;115.00;59.65;;;;;;;11.88;53.30;101629.25;4953978;28;98800;-79
2021/03/04 00:34:09;;;;;;;115.10;61.38;;;;;;;12.17;53.00;101638.19;4953562;28;96563;-79
2021/03/04 00:36:35;;;;;;;109.25;58.22;;;;;;;12.57;51.66;101633.47;4949192;28;96596;-76
2021/03/04 00:39:04;;;;;;;114.50;61.78;;;;;;;12.34;52.10;101623.53;4951781;28;96626;-77
2021/03/04 00:41:30;;;;;;;109.35;59.15;;;;;;;12.20;52.18;101624.84;4952164;28;98126;-80
2021/03/04 00:43:56;;;;;;;115.72;59.65;;;;;;;12.33;51.53;101623.59;4949068;28;95957;-78
2021/03/04 00:46:22;;;;;;;113.13;57.30;;;;;;;12.35;51.56;101616.44;4951136;28;96506;-80
2021/03/04 00:48:48;;;;;;;;;;;;;;;12.07;51.75;101619.03;4953684;28;97901;-78
2021/03/04 00:51:15;;;;;;;112.47;56.45;;;;;;;12.09;51.78;101621.63;4943769;28;99518;-80
2021/03/04 00:53:41;;;;;;;115.28;57.15;;;;;;;12.32;50.86;101617.44;4937405;28;96674;-79
2021/03/04 00:56:06;;;;;;;110.93;55.83;;;;;;;12.45;50.27;101611.75;4949963;28;97173;-79
2021/03/04 00:58:32;;;;;;;115.05;56.83;;;;;;;12.29;50.67;101608.69;4941981;28;98938;-79
2021/03/04 01:00:58;;;;;;;118.78;57.63;;;;;;;12.20;50.63;101611.59;4923827;28;98951;-78
2021/03/04 01:03:24;;;;;;;113.82;58.47;;;;;;;12.29;50.43;101603.38;4936170;28;96842;-79
2021/03/04 01:05:50;;;;;;;114.72;56.65;;;;;;;12.08;50.85;101604.00;4921830;28;96789;-78
2021/03/04 01:08:17;;;;;;;;;;;;;;;12.11;50.78;101599.47;4934973;28;98971;-78
2021/03/04 01:10:44;;;;;;;121.93;57.92;;;;;;;12.32;50.42;101605.94;4943589;28;97823;-80
2021/03/04 01:13:10;;;;;;;110.32;56.00;;;;;;;12.41;50.28;101600.38;4939345;28;96756;-78
2021/03/04 01:15:37;;;;;;;117.50;58.17;;;;;;;12.25;50.27;101593.78;4945156;28;97012;-79
2021/03/04 01:18:05;;;;;;;113.95;55.75;;;;;;;12.25;50.17;101586.72;4940052;28;99374;-79
2021/03/04 01:20:33;;;;;;;107.00;54.38;;;;;;;11.76;51.70;101587.19;4939346;28;98474;-79
2021/03/04 01:22:58;;;;;;;110.95;56.50;;;;;;;12.17;50.33;101583.41;4954152;28;96906;-78
2021/03/04 01:25:25;;;;;;;115.68;57.72;;;;;;;12.10;50.56;101579.19;4948611;28;96873;-80
2021/03/04 01:27:52;;;;;;;114.18;58.55;;;;;;;12.00;50.65;101577.72;4941694;28;98883;-79
2021/03/04 01:30:22;;;;;;;111.22;55.90;;;;;;;12.25;50.17;101569.94;4940110;28;99873;-78
2021/03/04 01:32:48;;;;;;;115.68;57.72;;;;;;;12.26;50.02;101574.34;4948629;28;96780;-78
2021/03/04 01:35:16;;;;;;;112.45;56.67;;;;;;;11.83;51.47;101572.88;4940903;28;96419;-78
2021/03/04 01:37:42;;;;;;;110.55;59.42;;;;;;;11.58;52.31;101567.38;4950268;28;97876;-78
2021/03/04 01:40:09;;;;;;;;;;;;;;;11.91;51.42;101573.56;4955647;28;98147;-79
2021/03/04 01:42:36;;;;;;;115.30;60.15;;;;;;;11.97;51.21;101565.44;4946498;28;96664;-79
2021/03/04 01:45:03;;;;;;;102.13;54.85;;;;;;;11.80;51.35;101562.41;4938529;28;96875;-80
2021/03/04 01:47:29;;;;;;;113.03;58.00;;;;;;;11.76;51.71;101563.38;4938072;28;97929;-80
2021/03/04 01:49:55;;;;;;;;;;;;;;;11.44;52.78;101550.09;4938999;28;98916;-79
2021/03/04 01:52:22;;;;;;;115.60;60.92;;;;;;;11.64;52.23;101549.56;4926462;28;97064;-79
2021/03/04 01:54:48;;;;;;;109.88;58.28;;;;;;;11.52;52.52;101556.94;4938128;28;97798;-80
2021/03/04 01:57:17;;;;;;;115.30;61.10;;;;;;;11.46;52.65;101559.75;4926139;28;97736;-80
2021/03/04 01:59:43;;;;;;;123.40;62.25;;;;;;;11.52;52.41;101551.66;4935465;28;97819;-79
2021/03/04 02:05:31;;;;;;;120.63;63.47;;;;;;;11.65;52.36;101540.72;4931680;28;96713;-79
2021/03/04 02:08:05;;;;;;;126.50;63.65;;;;;;;11.55;52.39;101540.97;4928920;28;99814;-80
2021/03/04 02:10:37;;;;;;;118.80;62.72;;;;;;;11.58;52.06;101540.91;4929404;28;101642;-79
2021/03/04 02:13:13;;;;;;;126.05;65.72;;;;;;;11.66;52.37;101532.75;4937901;28;96858;-80
2021/03/04 02:15:46;;;;;;;131.27;65.40;;;;;;;11.48;52.85;101541.19;4932224;28;97215;-78
2021/03/04 02:18:15;;;;;;;123.72;64.97;;;;;;;11.47;52.76;101535.03;4927849;28;97689;-80
2021/03/04 02:21:06;;;;;;;121.28;65.53;;;;;;;11.48;52.80;101534.13;4930608;28;99292;-80
2021/03/04 02:23:47;;;;;;;129.27;68.13;;;;;;;11.28;53.21;101530.25;4935791;28;97167;-79
2021/03/04 02:26:28;;;;;;;120.90;64.10;;;;;;;11.25;53.16;101517.97;4955717;28;98926;-81
2021/03/04 02:28:58;;;;;;;123.25;64.65;;;;;;;11.46;52.78;101522.69;4953462;28;98466;-80
2021/03/04 02:31:27;;;;;;;127.10;63.35;;;;;;;11.52;52.37;101519.88;4944303;28;98060;-79
2021/03/04 02:33:54;;;;;;;120.43;65.38;;;;;;;11.36;53.09;101513.25;4933757;28;96870;-79
2021/03/04 02:36:23;;;;;;;124.65;66.53;;;;;;;11.53;52.20;101516.34;4947126;28;96855;-78
2021/03/04 02:38:51;;;;;;;121.55;65.53;;;;;;;11.47;52.50;101512.97;4953890;28;97986;-78
2021/03/04 02:41:18;;;;;;;124.85;69.28;;;;;;;10.94;54.39;101517.00;4952366;28;97798;-80
2021/03/04 02:43:45;;;;;;;132.27;67.30;;;;;;;11.01;54.00;101515.97;4953153;28;96707;-80
2021/03/04 02:46:12;;;;;;;130.85;67.40;;;;;;;10.60;55.46;101519.59;4937978;28;96805;-79
2021/03/04 02:48:40;;;;;;;123.28;65.45;;;;;;;10.92;53.98;101522.34;4937787;28;98948;-80
2021/03/04 02:51:07;;;;;;;123.55;66.75;;;;;;;11.23;53.19;101514.47;4938280;28;99004;-80
2021/03/04 02:53:35;;;;;;;127.60;67.80;;;;;;;11.07;53.87;101513.16;4937137;28;96736;-79
2021/03/04 02:56:02;;;;;;;133.52;71.40;;;;;;;10.30;56.24;101515.88;4934200;28;97128;-79
2021/03/04 02:58:29;;;;;;;130.18;71.00;;;;;;;10.41;56.28;101511.22;4929676;28;99753;-80
2021/03/04 03:00:55;;;;;;;137.40;74.10;;;;;;;10.27;56.61;101515.94;4925328;28;99146;-80
2021/03/04 03:03:24;;;;;;;139.18;75.40;;;;;;;10.82;55.23;101517.31;4924283;28;97510;-79
2021/03/04 03:05:50;;;;;;;141.52;70.75;;;;;;;10.73;55.28;101524.56;4926558;28;96884;-80
2021/03/04 03:08:18;;;;;;;141.07;73.63;;;;;;;10.88;54.53;101527.75;4925287;28;99198;-80
2021/03/04 03:10:45;;;;;;;134.63;73.10;;;;;;;10.38;56.34;101521.84;4930932;28;99237;-80
2021/03/04 03:13:13;;;;;;;139.70;72.95;;;;;;;9.87;56.77;101529.94;4936338;28;96878;-79
2021/03/04 03:15:39;;;;;;;133.30;72.05;;;;;;;10.51;55.55;101525.06;4939568;28;96753;-80
2021/03/04 03:18:06;;;;;;;142.15;71.78;;;;;;;10.48;55.35;101528.69;4916710;28;97922;-79
2021/03/04 03:20:33;;;;;;;133.82;68.68;;;;;;;10.76;54.24;101529.75;4926268;28;99290;-80
2021/03/04 03:22:59;;;;;;;130.23;67.97;;;;;;;10.26;55.95;101525.63;4931075;28;96794;-79
2021/03/04 03:25:25;;;;;;;129.07;67.13;;;;;;;10.48;54.86;101526.03;4924260;28;96954;-80
2021/03/04 03:27:51;;;;;;;;;;;;;;;10.83;53.68;101527.00;4931660;28;97769;-78
2021/03/04 03:30:19;;;;;;;133.82;66.72;;;;;;;10.83;53.17;101524.34;4935051;28;98823;-79
2021/03/04 03:32:49;;;;;;;127.57;63.65;;;;;;;10.88;53.17;101525.09;4922215;28;97284;-79
2021/03/04 03:35:17;;;;;;;120.03;60.67;;;;;;;10.44;53.92;101516.41;4927477;28;97208;-80
2021/03/04 03:37:44;;;;;;;121.95;62.97;;;;;;;10.34;54.83;101514.91;4934507;28;99264;-79
2021/03/04 03:40:12;;;;;;;122.90;64.68;;;;;;;10.54;54.16;101523.25;4924317;28;98955;-81
2021/03/04 03:42:40;;;;;;;123.72;62.28;;;;;;;10.21;54.63;101521.34;4927714;28;96982;-81
2021/03/04 03:45:15;;;;;;;117.78;62.78;;;;;;;10.66;53.97;101520.31;4937321;28;96911;-80
2021/03/04 03:47:42;;;;;;;125.10;62.45;;;;;;;11.03;52.27;101517.63;4926263;28;99021;-81
2021/03/04 03:50:09;;;;;;;120.50;61.92;;;;;;;10.88;52.92;101523.31;4930232;28;98911;-80
2021/03/04 03:52:36;;;;;;;114.70;58.60;;;;;;;10.75;53.39;101514.81;4924112;28;97201;-80
2021/03/04 03:55:05;;;;;;;119.78;58.88;;;;;;;10.33;53.54;101515.81;4924176;28;96897;-78
2021/03/04 03:57:31;;;;;;;117.93;58.22;;;;;;;9.46;56.83;101517.56;4931544;28;101190;-79
2021/03/04 03:59:57;;;;;;;;;;;;;;;9.94;55.72;101512.22;4927619;28;99147;-81
2021/03/04 04:02:25;;;;;;;106.45;53.80;;;;;;;9.45;56.34;101517.59;4927527;28;97025;-80
2021/03/04 04:04:51;;;;;;;116.88;56.95;;;;;;;9.52;56.53;101514.78;4926180;28;97630;-80
2021/03/04 04:07:17;;;;;;;113.45;58.00;;;;;;;9.41;56.94;101523.81;4914042;28;98659;-81
2021/03/04 04:09:46;;;;;;;103.18;52.63;;;;;;;9.98;55.10;101527.94;4932149;28;97747;-80
2021/03/04 04:12:13;;;;;;;109.43;54.78;;;;;;;10.07;54.84;101518.09;4933853;28;96757;-81
2021/03/04 04:14:39;;;;;;;113.57;54.08;;;;;;;9.45;55.54;101523.72;4926587;28;96841;-80
2021/03/04 04:17:06;;;;;;;114.70;55.00;;;;;;;9.37;56.67;101524.78;4926404;28;99121;-80
2021/03/04 04:19:32;;;;;;;112.97;53.78;;;;;;;9.78;54.44;101524.00;4931228;28;101978;-80
2021/03/04 04:21:58;;;;;;;109.88;51.33;;;;;;;9.60;55.20;101526.06;4929899;28;97153;-80
2021/03/04 04:24:24;;;;;;;;;;;;;;;9.79;54.64;101523.94;4932699;28;96844;-80
2021/03/04 04:26:50;;;;;;;107.13;51.13;;;;;;;10.03;53.85;101522.59;4932501;28;98928;-78
2021/03/04 04:29:25;;;;;;;102.40;49.92;;;;;;;10.56;52.10;101510.00;4934475;28;98833;-82
2021/03/04 04:31:51;;;;;;;103.63;47.37;;;;;;;10.30;52.00;101507.97;4926723;28;98177;-81
2021/03/04 04:34:18;;;;;;;;;;;;;;;10.13;52.51;101503.00;4938750;28;97183;-80
2021/03/04 04:36:46;;;;;;;114.72;50.25;;;;;;;10.07;52.82;101503.13;4935802;28;99061;-81
2021/03/04 04:39:18;;;;;;;107.20;49.58;;;;;;;9.80;53.59;101504.56;4942151;28;99786;-82
2021/03/04 04:41:44;;;;;;;117.40;52.17;;;;;;;9.97;53.43;101496.31;4928944;28;97536;-82
2021/03/04 04:44:10;;;;;;;111.65;50.38;;;;;;;10.06;53.06;101500.53;4929901;28;96751;-82
2021/03/04 04:46:48;;;;;;;114.95;51.05;;;;;;;9.75;53.84;101501.16;4936998;28;99925;-81
2021/03/04 04:49:21;;;;;;;111.32;51.08;;;;;;;10.00;53.22;101497.13;4924083;28;98806;-81
2021/03/04 04:51:50;;;;;;;113.47;50.95;;;;;;;9.95;53.08;101509.56;4938417;28;97191;-82
2021/03/04 04:54:16;;;;;;;119.93;51.08;;;;;;;10.17;52.78;101510.00;4934077;28;96829;-80
2021/03/04 04:56:46;;;;;;;;;;;;;;;9.88;53.63;101502.66;4935221;28;97257;-81
2021/03/04 04:59:19;;;;;;;123.82;50.25;;;;;;;9.88;53.45;101507.06;4934415;28;98033;-82
2021/03/04 05:01:47;;;;;;;118.45;51.28;;;;;;;10.04;53.15;101504.97;4943666;28;96837;-82
2021/03/04 05:04:13;;;;;;;121.75;51.53;;;;;;;9.55;54.48;101514.75;4931542;28;96784;-80
2021/03/04 05:06:39;;;;;;;116.38;52.83;;;;;;;9.93;53.46;101502.56;4960458;28;97745;-81
2021/03/04 05:09:05;;;;;;;125.97;51.40;;;;;;;10.09;53.20;101503.09;4958999;28;97757;-79
2021/03/04 05:11:31;;;;;;;117.82;51.17;;;;;;;10.18;52.93;101506.44;4944014;28;96769;-80
2021/03/04 05:13:57;;;;;;;;;;;;;;;9.99;53.14;101505.94;4957401;28;96305;-80
2021/03/04 05:16:23;;;;;;;127.43;50.40;;;;;;;9.67;54.48;101503.09;4942603;28;98026;-80
2021/03/04 05:18:49;;;;;;;125.00;49.88;;;;;;;9.99;53.29;101503.28;4928880;28;99081;-80
2021/03/04 05:21:16;;;;;;;119.05;48.85;;;;;;;9.88;53.09;101491.22;4936318;28;96725;-79
2021/03/04 05:23:42;;;;;;;115.05;48.67;;;;;;;9.81;53.69;101490.47;4945110;28;96849;-80
2021/03/04 05:26:08;;;;;;;121.47;50.80;;;;;;;10.09;52.57;101476.69;4950497;28;99056;-80
2021/03/04 05:28:34;;;;;;;115.22;48.53;;;;;;;9.93;52.84;101481.44;4960938;28;97723;-80
2021/03/04 05:31:00;;;;;;;115.45;50.20;;;;;;;9.95;53.11;101477.88;4948550;28;96725;-80
2021/03/04 05:33:26;;;;;;;;;;;;;;;9.74;53.31;101485.34;4929023;28;96741;-80
2021/03/04 05:35:53;;;;;;;116.88;45.92;;;;;;;9.98;52.87;101482.19;4934483;28;98824;-80
2021/03/04 05:38:19;;;;;;;106.97;44.78;;;;;;;10.13;52.21;101481.88;4939135;28;97852;-81
2021/03/04 05:40:45;;;;;;;114.47;43.38;;;;;;;9.84;52.84;101482.50;4945723;28;96777;-80
2021/03/04 05:43:12;;;;;;;109.47;42.50;;;;;;;9.52;53.39;101482.25;4943529;28;96587;-80
2021/03/04 05:45:41;;;;;;;97.68;41.53;;;;;;;9.72;52.83;101480.09;4950882;28;97109;-80
2021/03/04 05:48:09;;;;;;;101.18;42.13;;;;;;;9.74;52.99;101486.22;4948760;28;97793;-79
2021/03/04 05:50:41;;;;;;;92.85;40.40;;;;;;;9.66;52.83;101484.63;4951490;28;96958;-80
2021/03/04 05:53:12;;;;;;;87.80;36.60;;;;;;;9.30;53.20;101491.50;4949696;28;98049;-79
2021/03/04 05:55:39;;;;;;;90.47;38.08;;;;;;;9.41;53.17;101485.13;4948720;28;97812;-79
2021/03/04 05:58:06;;;;;;;92.32;37.42;;;;;;;9.29;52.97;101489.75;4942297;28;101654;-80
2021/03/04 06:00:32;;;;;;;95.75;37.58;;;;;;;8.72;54.85;101476.69;4927315;28;97200;-78
2021/03/04 06:02:58;;;;;;;;;;;;;;;9.09;53.96;101480.44;4931537;28;96907;-80
2021/03/04 06:05:25;;;;;;;86.30;35.40;;;;;;;8.75;54.98;101479.28;4928583;28;98440;-82
2021/03/04 06:07:51;;;;;;;99.57;36.55;;;;;;;8.75;54.81;101480.13;4935485;28;97894;-80
2021/03/04 06:10:18;;;;;;;87.82;37.40;;;;;;;9.19;53.93;101481.13;4937606;28;97540;-80
2021/03/04 06:12:44;;;;;;;91.75;37.75;;;;;;;9.39;53.08;101486.03;4933105;28;97261;-81
2021/03/04 06:15:11;;;;;;;88.25;37.63;;;;;;;9.74;51.91;101469.53;4940924;28;101934;-81
2021/03/04 06:17:38;;;;;;;89.40;37.33;;;;;;;9.73;51.85;101479.19;4931446;28;97667;-80
2021/03/04 06:20:06;;;;;;;89.97;39.33;;;;;;;10.21;50.73;101473.81;4933238;28;98462;-81
2021/03/04 06:22:33;;;;;;;92.50;38.97;;;;;;;9.92;51.05;101474.41;4933547;28;97102;-79
2021/03/04 06:25:00;;;;;;;86.13;36.33;;;;;;;9.92;51.21;101477.91;4924831;28;98054;-79
2021/03/04 06:27:29;;;;;;;89.72;39.55;;;;;;;9.67;51.60;101481.09;4922153;28;98926;-79
2021/03/04 06:29:56;;;;;;;90.30;36.75;;;;;;;9.69;51.45;101484.59;4932023;28;97167;-79
2021/03/04 06:32:23;;;;;;;88.97;36.42;;;;;;;9.35;52.46;101476.44;4928374;28;99143;-79
2021/03/04 06:35:00;;;;;;;86.05;37.75;;;;;;;9.86;51.37;101479.81;4931355;28;99697;-79
2021/03/04 06:37:28;;;;;;;86.38;39.05;;;;;;;9.33;52.80;101479.09;4928296;28;99264;-79
2021/03/04 06:39:54;;;;;;;90.47;38.83;;;;;;;9.39;52.56;101481.63;4926544;28;97004;-80
2021/03/04 06:42:20;;;;;;;;;;;;;;;9.56;52.42;101487.47;4930090;28;98692;-79
2021/03/04 06:44:48;;;;;;;84.95;37.55;;;;;;;9.84;51.57;101482.50;4932899;28;99284;-79
2021/03/04 06:47:20;;;;;;;89.95;38.58;;;;;;;9.86;51.39;101483.31;4926469;28;99127;-80
2021/03/04 06:49:47;;;;;;;85.95;37.38;;;;;;;10.00;50.69;101480.41;4932462;28;96950;-79
2021/03/04 06:52:23;;;;;;;85.75;36.92;;;;;;;9.69;51.64;101489.88;4923160;28;96965;-79
2021/03/04 06:54:50;;;;;;;93.35;37.72;;;;;;;9.70;52.00;101481.94;4933976;28;99378;-80
2021/03/04 06:57:16;;;;;;;98.35;38.65;;;;;;;9.88;51.75;101494.75;4928629;28;98973;-79
2021/03/04 06:59:44;;;;;;;92.82;39.08;;;;;;;9.61;52.25;101492.66;4930286;28;97453;-79
2021/03/04 07:02:11;;;;;;;90.82;38.17;;;;;;;8.63;55.45;101493.50;4934432;28;97023;-79
2021/03/04 07:04:37;;;;;;;92.38;38.50;;;;;;;8.78;55.04;101488.00;4927042;28;98925;-79
2021/03/04 07:07:04;;;;;;;;;;;;;;;9.46;53.24;101492.94;4928119;28;98859;-79
2021/03/04 07:09:33;;;;;;;95.00;37.95;;;;;;;9.49;53.09;101490.25;4921141;28;97194;-80
2021/03/04 07:11:59;;;;;;;85.00;37.65;;;;;;;9.50;52.72;101484.09;4933623;28;97015;-80
2021/03/04 07:14:26;;;;;;;83.13;36.83;;;;;;;9.81;51.83;101479.06;4938251;28;98932;-81
2021/03/04 07:16:54;;;;;;;86.47;35.55;;;;;;;9.78;51.79;101482.59;4931355;28;98982;-78
2021/03/04 07:19:21;;;;;;;85.78;36.15;;;;;;;9.96;51.28;101479.59;4929611;28;97190;-79
2021/03/04 07:21:49;;;;;;;87.05;35.50;;;;;;;9.86;51.45;101477.19;4942477;28;97297;-80
2021/03/04 07:24:15;;;;;;;83.80;32.92;;;;;;;10.05;50.52;101481.16;4934996;28;98982;-79
2021/03/04 07:26:41;;;;;;;81.55;34.85;;;;;;;9.94;50.47;101475.25;4936784;28;99582;-80
2021/03/04 07:29:08;;;;;;;;;;;;;;;9.38;52.11;101486.97;4950253;28;96844;-79
2021/03/04 07:31:35;;;;;;;83.85;32.83;;;;;;;9.51;51.74;101476.16;4953167;28;96629;-79
2021/03/04 07:34:01;;;;;;;79.15;32.42;;;;;;;9.41;52.21;101473.69;4957617;28;98041;-78
2021/03/04 07:36:30;;;;;;;72.30;30.95;;;;;;;9.02;53.56;101478.81;4950132;28;97950;-77
2021/03/04 07:38:57;;;;;;;76.90;30.60;;;;;;;9.01;53.37;101479.69;4935760;28;96481;-77
2021/03/04 07:41:23;;;;;;;69.85;29.75;;;;;;;9.39;52.69;101484.25;4944797;28;96772;-80
2021/03/04 07:43:59;;;;;;;74.63;30.67;;;;;;;8.99;53.16;101486.75;4936104;28;97641;-81
2021/03/04 07:46:27;;;;;;;78.15;30.77;;;;;;;9.04;52.86;101484.06;4945661;28;97728;-79
2021/03/04 07:48:53;;;;;;;71.78;30.70;;;;;;;9.29;52.59;101482.72;4944610;28;96755;-80
2021/03/04 07:51:20;;;;;;;75.40;32.28;;;;;;;9.49;51.72;101477.06;4947180;28;96830;-79
2021/03/04 07:53:48;;;;;;;80.28;34.53;;;;;;;9.48;51.99;101475.31;4939992;28;98869;-80
2021/03/04 07:56:27;;;;;;;77.97;32.45;;;;;;;9.92;51.26;101483.19;4949300;28;97235;-80
2021/03/04 07:58:55;;;;;;;80.55;32.53;;;;;;;10.11;50.73;101482.81;4939054;28;96819;-78
2021/03/04 08:01:21;;;;;;;81.65;33.97;;;;;;;10.15;50.73;101477.44;4937366;28;96684;-79
2021/03/04 08:03:48;;;;;;;81.38;32.70;;;;;;;9.90;51.10;101482.38;4939683;28;98130;-80
2021/03/04 08:06:16;;;;;;;78.55;31.50;;;;;;;9.51;51.90;101497.25;4948087;28;98358;-80
2021/03/04 08:08:47;;;;;;;76.03;31.77;;;;;;;9.34;52.44;101482.63;4948320;28;96613;-80
2021/03/04 08:11:30;;;;;;;73.88;30.90;;;;;;;9.51;52.26;101485.81;4943474;28;96800;-81
2021/03/04 08:13:56;;;;;;;74.95;31.15;;;;;;;9.59;52.07;101483.88;4945945;28;98112;-80
2021/03/04 08:16:23;;;;;;;77.78;32.65;;;;;;;9.97;50.97;101481.34;4936323;28;98352;-80
2021/03/04 08:18:54;;;;;;;88.43;33.47;;;;;;;9.41;52.01;101487.75;4925920;28;97212;-80
2021/03/04 08:21:20;;;;;;;78.40;29.42;;;;;;;9.56;51.76;101476.03;4933490;28;99196;-79
2021/03/04 08:23:47;;;;;;;74.28;30.98;;;;;;;9.72;51.18;101482.75;4940751;28;100643;-79
2021/03/04 08:26:22;;;;;;;79.82;30.45;;;;;;;10.01;50.52;101476.88;4920251;28;100325;-80
2021/03/04 08:28:49;;;;;;;76.82;31.00;;;;;;;10.25;50.13;101476.34;4934962;28;96977;-79
2021/03/04 08:31:16;;;;;;;72.18;28.58;;;;;;;8.84;52.54;101480.88;4939640;28;97140;-79
2021/03/04 08:33:42;;;;;;;70.93;27.67;;;;;;;9.05;52.49;101476.13;4938417;28;98950;-79
2021/03/04 08:36:09;;;;;;;70.00;27.73;;;;;;;9.35;52.19;101477.31;4919249;28;98752;-80
2021/03/04 08:38:40;;;;;;;73.30;26.98;;;;;;;9.35;51.45;101469.41;4937037;28;97126;-80
2021/03/04 08:41:06;;;;;;;73.47;27.80;;;;;;;9.83;50.38;101464.06;4941063;28;97018;-78
2021/03/04 08:43:32;;;;;;;63.95;25.92;;;;;;;9.53;50.73;101460.25;4941604;28;97847;-79
2021/03/04 08:46:06;;;;;;;64.00;26.13;;;;;;;10.06;48.76;101458.28;4935605;28;99245;-79
2021/03/04 08:48:34;;;;;;;71.20;24.90;;;;;;;9.78;49.81;101461.50;4941088;28;96857;-79
2021/03/04 08:51:06;;;;;;;59.65;24.48;;;;;;;9.72;49.66;101458.97;4945880;28;96769;-79
2021/03/04 08:53:34;;;;;;;57.17;24.30;;;;;;;9.71;49.62;101459.91;4942515;28;100213;-79
2021/03/04 08:56:03;;;;;;;57.38;23.55;;;;;;;8.88;51.12;101466.75;4942689;28;101859;-79
2021/03/04 08:58:32;;;;;;;59.08;24.40;;;;;;;9.23;50.47;101466.13;4941901;28;96963;-78
2021/03/04 09:01:00;;;;;;;55.90;23.85;;;;;;;9.29;50.77;101453.69;4930205;28;96998;-81
2021/03/04 09:03:28;;;;;;;60.28;24.30;;;;;;;9.40;50.60;101456.13;4929671;28;99448;-80
2021/03/04 09:06:04;;;;;;;64.07;24.05;;;;;;;8.96;51.55;101459.59;4937195;28;99452;-80
2021/03/04 09:08:33;;;;;;;64.43;24.65;;;;;;;8.94;51.34;101449.06;4931499;28;97345;-78
2021/03/04 09:10:59;;;;;;;49.95;23.10;;;;;;;8.94;51.24;101456.97;4950076;28;96633;-78
2021/03/04 09:13:25;;;;;;;;;;;;;;;9.68;49.64;101459.97;4947892;28;98836;-77
2021/03/04 09:15:53;;;;;;;59.33;24.10;;;;;;;9.80;48.87;101448.28;4923714;28;100999;-78
2021/03/04 09:18:21;;;;;;;57.40;23.25;;;;;;;9.86;49.02;101450.78;4938135;28;96788;-78
2021/03/04 09:20:48;;;;;;;53.63;23.63;;;;;;;9.95;48.54;101440.03;4944195;28;96791;-78
2021/03/04 09:23:15;;;;;;;55.78;23.25;;;;;;;9.88;48.95;101449.84;4954845;28;97949;-80
2021/03/04 09:25:42;;;;;;;55.92;23.83;;;;;;;10.11;48.04;101440.56;4935981;28;98866;-78
2021/03/04 09:28:11;;;;;;;48.40;22.40;;;;;;;9.84;48.46;101442.91;4937600;28;97019;-79
2021/03/04 09:30:38;;;;;;;50.03;21.92;;;;;;;9.95;48.45;101438.28;4941272;28;96889;-79
2021/03/04 09:33:15;;;;;;;50.28;22.88;;;;;;;10.16;47.98;101439.56;4938515;28;99580;-79
2021/03/04 09:35:55;;;;;;;53.97;22.73;;;;;;;9.94;48.83;101433.88;4928088;28;100410;-78
2021/03/04 09:38:21;;;;;;;48.33;23.13;;;;;;;10.13;48.15;101429.06;4922325;28;96815;-78
2021/03/04 09:40:47;;;;;;;51.10;23.77;;;;;;;10.08;48.12;101432.72;4900290;28;97443;-79
2021/03/04 09:43:15;;;;;;;;;;;;;;;9.59;49.12;101439.91;4903035;28;99413;-79
2021/03/04 09:45:45;;;;;;;54.22;22.63;;;;;;;9.80;48.76;101443.00;4901001;28;99461;-79
2021/03/04 09:48:12;;;;;;;49.60;22.15;;;;;;;9.63;49.41;101447.78;4896627;28;97981;-79
2021/03/04 09:50:38;;;;;;;50.25;21.55;;;;;;;9.69;49.17;101451.16;4900853;28;96887;-81
2021/03/04 09:53:47;;;;;;;49.30;20.52;;;;;;;9.26;50.09;101455.50;4899539;28;98926;-79
2021/03/04 09:56:20;;;;;;;50.97;21.85;;;;;;;8.99;50.47;101464.81;4897688;28;97618;-79
2021/03/04 09:58:47;;;;;;;47.05;21.15;;;;;;;9.33;50.12;101465.06;4898669;28;97173;-81
2021/03/04 10:01:13;;;;;;;52.97;22.60;;;;;;;9.95;48.55;101462.03;4911173;28;96651;-80
2021/03/04 10:03:41;;;;;;;53.35;22.67;;;;;;;10.00;48.47;101464.56;4903311;28;97979;-81
2021/03/04 10:06:24;;;;;;;49.05;22.85;;;;;;;9.34;50.10;101472.06;4952891;23;97729;-80
2021/03/04 10:08:55;;;;;;;52.95;22.60;;;;;;;9.36;49.93;101470.28;4972696;28;99068;-80
2021/03/04 10:11:24;;;;;;;51.33;23.80;;;;;;;9.64;49.46;101471.50;4970040;28;96770;-81
2021/03/04 10:13:51;;;;;;;56.95;24.60;;;;;;;8.80;51.74;101470.38;4979441;28;98176;-80
2021/03/04 10:16:17;;;;;;;58.25;23.05;;;;;;;9.77;49.24;101461.56;4983086;28;97554;-80
2021/03/04 10:18:47;;;;;;;54.72;23.88;;;;;;;9.96;48.47;101463.78;4980471;28;96855;-79
2021/03/04 10:21:15;;;;;;;54.75;24.20;;;;;;;9.92;48.61;101461.22;4979614;28;97623;-80
2021/03/04 10:23:41;;;;;;;59.20;24.60;;;;;;;9.35;50.00;101461.50;4983512;28;98112;-80
2021/03/04 10:26:08;;;;;;;51.35;24.35;;;;;;;10.10;48.39;101466.13;4980417;28;97729;-80
2021/03/04 10:28:34;;;;;;;57.70;24.20;;;;;;;9.77;49.05;101465.06;4980142;28;97019;-78
2021/03/04 10:31:00;;;;;;;56.72;23.77;;;;;;;10.18;47.92;101466.81;4974893;28;96949;-80
2021/03/04 10:33:26;;;;;;;;;;;;;;;10.21;48.00;101461.47;4972203;28;97636;-82
2021/03/04 10:35:52;;;;;;;64.15;24.35;;;;;;;9.77;48.81;101458.91;4977829;28;101991;-80
2021/03/04 10:38:18;;;;;;;;;;;;;;;10.11;48.66;101451.13;4972695;28;97538;-80
2021/03/04 10:40:46;;;;;;;56.28;23.55;;;;;;;10.14;48.32;101445.78;4956731;28;96764;-80
2021/03/04 10:43:13;;;;;;;49.92;23.25;;;;;;;9.64;49.72;101458.31;4983196;28;101476;-80
2021/03/04 10:45:39;;;;;;;53.80;24.48;;;;;;;10.20;48.32;101450.94;4985283;28;98071;-81
2021/03/04 10:48:06;;;;;;;;;;;;;;;9.54;49.70;101454.09;4988839;28;97933;-81
2021/03/04 10:50:32;;;;;;;51.90;22.83;;;;;;;9.50;49.80;101458.56;4987251;28;99099;-81
2021/03/04 10:52:58;;;;;;;47.63;21.73;;;;;;;9.55;49.90;101451.44;4982874;28;97757;-79
2021/03/04 10:55:24;;;;;;;;;;;;;;;9.22;49.58;101467.03;4985542;28;98959;-79
2021/03/04 10:57:50;;;;;;;47.38;21.38;;;;;;;9.00;50.19;101463.91;4990566;28;96956;-80
2021/03/04 11:00:18;;;;;;;;;;;;;;;8.88;50.61;101446.53;4988129;28;96687;-79
2021/03/04 11:02:44;;;;;;;43.60;19.75;;;;;;;9.52;48.90;101451.47;4980082;28;97493;-80
2021/03/04 11:05:10;;;;;;;;;;;;;;;9.88;47.29;101460.41;4977638;28;97161;-80
2021/03/04 11:07:36;;;;;;;45.05;18.02;;;;;;;9.68;47.94;101464.38;4958329;28;98516;-79
2021/03/04 11:10:17;;;;;;;;;;;;;;;;;;;;;
2021/03/04 11:12:43;;;;;;;45.97;18.42;;;;;;;8.92;48.63;101474.59;4960927;28;127967;-80
2021/03/04 11:15:10;;;;;;;35.08;17.13;;;;;;;8.64;49.70;101473.31;4975430;28;97832;-80
2021/03/04 11:17:43;;;;;;;38.40;17.92;;;;;;;9.05;48.84;101473.50;4973886;28;96642;-79
2021/03/04 11:20:10;;;;;;;34.50;16.13;;;;;;;8.71;49.48;101473.19;4970057;28;97049;-80
2021/03/04 11:22:36;;;;;;;32.38;16.08;;;;;;;9.01;48.31;101468.28;4963569;28;97872;-81
2021/03/04 11:25:03;;;;;;;37.92;15.45;;;;;;;9.42;47.23;101475.44;4970419;28;99244;-81